createdAt,value
2022-11-12T00:02:10.139Z,6.90
2022-11-12T00:05:32.206Z,6.84
2022-11-12T00:08:53.608Z,6.92
2022-11-12T00:12:16.072Z,6.90
2022-11-12T00:15:37.162Z,6.86
2022-11-12T00:18:58.351Z,6.86
2022-11-12T00:22:19.439Z,6.79
2022-11-12T00:25:40.841Z,6.81
2022-11-12T00:29:03.616Z,6.84
2022-11-12T00:32:25.036Z,6.75
2022-11-12T00:35:46.607Z,6.79
2022-11-12T00:39:07.906Z,6.76
2022-11-12T00:42:29.471Z,6.79
2022-11-12T00:45:51.879Z,6.79
2022-11-12T00:49:13.497Z,6.71
2022-11-12T00:52:35.184Z,6.75
2022-11-12T00:56:00.782Z,6.76
2022-11-12T00:59:22.190Z,6.79
2022-11-12T01:02:50.454Z,6.77
2022-11-12T01:06:13.817Z,6.69
2022-11-12T01:09:35.432Z,6.69
2022-11-12T01:12:57.026Z,6.65
2022-11-12T01:16:19.905Z,6.65
2022-11-12T01:19:42.571Z,6.70
2022-11-12T01:23:04.007Z,6.67
2022-11-12T01:26:25.558Z,6.66
2022-11-12T01:29:46.819Z,6.70
2022-11-12T01:33:07.971Z,6.70
2022-11-12T01:36:32.505Z,6.67
2022-11-12T01:39:53.512Z,6.69
2022-11-12T01:43:14.534Z,6.70
2022-11-12T01:46:36.609Z,6.66
2022-11-12T01:50:00.864Z,6.63
2022-11-12T01:53:26.280Z,6.66
2022-11-12T01:56:47.913Z,6.68
2022-11-12T02:00:10.478Z,6.63
2022-11-12T02:03:32.099Z,6.59
2022-11-12T02:06:54.136Z,6.55
2022-11-12T02:10:17.116Z,6.57
2022-11-12T02:13:55.933Z,6.56
2022-11-12T02:17:17.284Z,6.55
2022-11-12T02:20:39.359Z,6.56
2022-11-12T02:24:03.578Z,6.54
2022-11-12T02:27:25.249Z,6.48
2022-11-12T02:30:48.440Z,6.43
2022-11-12T02:34:10.186Z,6.47
2022-11-12T02:37:31.494Z,6.45
2022-11-12T02:40:54.376Z,6.48
2022-11-12T02:44:15.499Z,6.49
2022-11-12T02:47:36.558Z,6.52
2022-11-12T02:50:57.554Z,6.56
2022-11-12T02:54:18.702Z,6.52
2022-11-12T02:57:41.765Z,6.53
2022-11-12T03:01:03.347Z,6.55
2022-11-12T03:04:24.856Z,6.54
2022-11-12T03:07:45.994Z,6.56
2022-11-12T03:11:07.553Z,6.48
2022-11-12T03:14:30.167Z,6.57
2022-11-12T03:17:51.525Z,6.57
2022-11-12T03:21:13.460Z,6.59
2022-11-12T03:24:34.942Z,6.57
2022-11-12T03:27:59.409Z,6.55
2022-11-12T03:31:21.920Z,6.54
2022-11-12T03:34:43.173Z,6.56
2022-11-12T03:38:04.840Z,6.57
2022-11-12T03:41:26.427Z,6.54
2022-11-12T03:44:47.845Z,6.57
2022-11-12T03:48:10.596Z,6.57
2022-11-12T03:51:32.012Z,6.47
2022-11-12T03:54:53.291Z,6.43
2022-11-12T03:58:14.784Z,6.49
2022-11-12T04:01:36.208Z,6.45
2022-11-12T04:05:16.571Z,6.41
2022-11-12T04:08:37.927Z,6.39
2022-11-12T04:12:19.792Z,6.36
2022-11-12T04:15:40.980Z,6.42
2022-11-12T04:19:20.820Z,6.40
2022-11-12T04:22:43.634Z,6.37
2022-11-12T04:26:22.433Z,6.30
2022-11-12T04:30:01.719Z,6.21
2022-11-12T04:33:22.893Z,6.18
2022-11-12T04:36:44.642Z,6.13
2022-11-12T04:40:28.568Z,6.14
2022-11-12T04:44:07.522Z,6.09
2022-11-12T04:47:29.820Z,6.05
2022-11-12T04:50:54.074Z,5.94
2022-11-12T04:54:15.268Z,6.00
2022-11-12T04:57:38.452Z,5.95
2022-11-12T05:00:59.569Z,5.93
2022-11-12T05:04:21.962Z,5.84
2022-11-12T05:07:43.054Z,5.81
2022-11-12T05:11:06.514Z,5.75
2022-11-12T05:14:32.924Z,5.80
2022-11-12T05:17:54.342Z,5.74
2022-11-12T05:21:47.909Z,5.78
2022-11-12T05:25:09.502Z,5.71
2022-11-12T05:28:30.664Z,5.63
2022-11-12T05:31:53.255Z,5.57
2022-11-12T05:35:14.350Z,5.59
2022-11-12T05:38:35.593Z,5.55
2022-11-12T05:42:13.715Z,5.45
2022-11-12T05:45:35.093Z,5.48
2022-11-12T05:48:57.745Z,5.47
2022-11-12T05:52:19.132Z,5.38
2022-11-12T05:55:40.119Z,5.39
2022-11-12T05:59:01.749Z,5.41
2022-11-12T06:02:23.000Z,5.42
2022-11-12T06:05:45.802Z,5.37
2022-11-12T06:09:06.819Z,5.39
2022-11-12T06:12:28.224Z,5.32
2022-11-12T06:15:49.343Z,5.36
2022-11-12T06:19:10.566Z,5.35
2022-11-12T06:22:34.194Z,5.29
2022-11-12T06:25:55.493Z,5.33
2022-11-12T06:29:16.725Z,5.34
2022-11-12T06:32:37.760Z,5.37
2022-11-12T06:36:02.903Z,5.30
2022-11-12T06:39:25.694Z,5.16
2022-11-12T06:42:46.899Z,5.14
2022-11-12T06:46:09.465Z,5.13
2022-11-12T06:49:30.778Z,5.19
2022-11-12T06:52:51.971Z,5.17
2022-11-12T06:56:14.498Z,5.17
2022-11-12T06:59:35.917Z,5.26
2022-11-12T07:02:57.276Z,5.23
2022-11-12T07:06:20.336Z,5.29
2022-11-12T07:09:41.539Z,5.31
2022-11-12T07:13:04.051Z,5.32
2022-11-12T07:16:25.511Z,5.40
2022-11-12T07:19:46.724Z,5.50
2022-11-12T07:23:07.933Z,5.68
2022-11-12T07:26:29.567Z,5.75
2022-11-12T07:29:52.188Z,5.86
2022-11-12T07:33:13.697Z,5.96
2022-11-12T07:36:35.165Z,6.12
2022-11-12T07:39:56.679Z,6.98
2022-11-12T07:43:18.270Z,6.61
2022-11-12T07:46:41.205Z,6.58
2022-11-12T07:50:02.152Z,6.58
2022-11-12T07:53:23.407Z,6.63
2022-11-12T07:56:44.554Z,6.69
2022-11-12T08:00:07.864Z,6.86
2022-11-12T08:03:30.275Z,6.95
2022-11-12T08:06:51.585Z,7.12
2022-11-12T08:10:13.056Z,7.30
2022-11-12T08:13:34.414Z,7.46
2022-11-12T08:16:56.109Z,7.58
2022-11-12T08:20:19.157Z,7.72
2022-11-12T08:23:40.461Z,7.86
2022-11-12T08:27:01.934Z,7.94
2022-11-12T08:30:23.286Z,8.05
2022-11-12T08:33:44.695Z,8.16
2022-11-12T08:37:07.492Z,8.38
2022-11-12T08:40:29.001Z,8.41
2022-11-12T08:43:50.619Z,8.48
2022-11-12T08:47:12.041Z,8.59
2022-11-12T08:50:33.395Z,8.70
2022-11-12T08:53:56.277Z,8.84
2022-11-12T08:57:17.542Z,9.00
2022-11-12T09:00:40.383Z,9.14
2022-11-12T09:04:01.848Z,9.27
2022-11-12T09:07:48.038Z,9.50
2022-11-12T09:11:05.745Z,9.56
2022-11-12T09:14:27.151Z,9.73
2022-11-12T09:17:48.533Z,9.99
2022-11-12T09:21:11.792Z,10.26
2022-11-12T09:24:32.795Z,10.44
2022-11-12T09:27:55.641Z,10.59
2022-11-12T09:31:16.899Z,10.52
2022-11-12T09:34:38.051Z,10.71
2022-11-12T09:38:00.333Z,11.03
2022-11-12T09:41:25.191Z,11.19
2022-11-12T09:44:51.175Z,11.25
2022-11-12T09:48:15.088Z,11.58
2022-11-12T09:51:38.883Z,11.72
2022-11-12T09:55:03.534Z,12.04
2022-11-12T09:58:26.861Z,12.24
2022-11-12T10:01:57.763Z,12.40
2022-11-12T10:05:23.441Z,12.70
2022-11-12T10:08:49.521Z,12.71
2022-11-12T10:12:33.226Z,12.61
2022-11-12T10:16:16.971Z,13.01
2022-11-12T10:19:56.675Z,12.72
2022-11-12T10:23:20.294Z,13.02
2022-11-12T10:26:41.559Z,12.85
2022-11-12T10:30:04.836Z,13.19
2022-11-12T10:33:30.766Z,13.48
2022-11-12T10:36:55.769Z,13.47
2022-11-12T10:40:35.135Z,13.62
2022-11-12T10:44:00.142Z,13.54
2022-11-12T10:47:26.346Z,13.40
2022-11-12T10:50:47.988Z,13.42
2022-11-12T10:54:22.546Z,13.38
2022-11-12T10:57:43.847Z,13.23
2022-11-12T11:01:07.363Z,13.24
2022-11-12T11:04:30.898Z,13.25
2022-11-12T11:07:52.279Z,13.30
2022-11-12T11:11:22.233Z,13.28
2022-11-12T11:14:44.633Z,13.20
2022-11-12T11:18:05.639Z,13.23
2022-11-12T11:21:42.595Z,13.16
2022-11-12T11:25:13.017Z,13.08
2022-11-12T11:28:40.036Z,13.06
2022-11-12T11:32:04.486Z,13.04
2022-11-12T11:35:28.327Z,13.10
2022-11-12T11:38:55.401Z,13.09
2022-11-12T11:42:26.780Z,12.96
2022-11-12T11:46:05.832Z,13.02
2022-11-12T11:49:43.538Z,13.03
2022-11-12T11:53:15.173Z,13.06
2022-11-12T11:56:41.223Z,12.94
2022-11-12T12:00:06.019Z,12.85
2022-11-12T12:03:32.899Z,12.86
2022-11-12T12:07:06.189Z,12.85
2022-11-12T12:11:01.360Z,12.74
2022-11-12T12:14:19.694Z,12.50
2022-11-12T12:17:47.077Z,12.29
2022-11-12T12:21:10.783Z,12.29
2022-11-12T12:24:37.409Z,12.39
2022-11-12T12:28:01.191Z,12.49
2022-11-12T12:31:26.871Z,12.63
2022-11-12T12:34:49.895Z,12.72
2022-11-12T12:38:13.143Z,12.80
2022-11-12T12:41:40.595Z,12.91
2022-11-12T12:45:08.024Z,13.00
2022-11-12T12:48:32.585Z,13.01
2022-11-12T12:51:55.928Z,13.03
2022-11-12T12:55:32.243Z,13.06
2022-11-12T12:58:55.264Z,12.98
2022-11-12T13:02:20.997Z,12.98
2022-11-12T13:05:42.917Z,13.07
2022-11-12T13:09:06.346Z,13.09
2022-11-12T13:12:42.871Z,13.09
2022-11-12T13:16:05.629Z,13.03
2022-11-12T13:19:27.921Z,13.08
2022-11-12T13:22:50.718Z,13.19
2022-11-12T13:26:26.705Z,13.24
2022-11-12T13:29:48.321Z,13.08
2022-11-12T13:33:24.930Z,13.22
2022-11-12T13:36:55.714Z,13.25
2022-11-12T13:40:20.431Z,13.30
2022-11-12T13:43:43.347Z,13.34
2022-11-12T13:47:05.538Z,13.37
2022-11-12T13:50:28.683Z,13.41
2022-11-12T13:53:49.976Z,13.47
2022-11-12T13:57:27.174Z,13.38
2022-11-12T14:00:54.735Z,13.35
2022-11-12T14:04:17.464Z,13.29
2022-11-12T14:07:46.197Z,13.17
2022-11-12T14:11:32.906Z,13.24
2022-11-12T14:15:05.289Z,13.10
2022-11-12T14:18:30.648Z,13.29
2022-11-12T14:22:02.307Z,13.34
2022-11-12T14:25:26.319Z,13.36
2022-11-12T14:28:47.559Z,13.28
2022-11-12T14:32:10.017Z,13.14
2022-11-12T14:35:35.745Z,13.08
2022-11-12T14:38:57.979Z,12.99
2022-11-12T14:42:21.204Z,12.69
2022-11-12T14:45:48.448Z,12.52
2022-11-12T14:49:17.089Z,12.20
2022-11-12T14:52:42.077Z,12.19
2022-11-12T14:56:05.466Z,12.14
2022-11-12T14:59:28.198Z,11.69
2022-11-12T15:02:57.664Z,11.36
2022-11-12T15:06:23.036Z,11.24
2022-11-12T15:09:44.481Z,11.24
2022-11-12T15:13:07.133Z,11.12
2022-11-12T15:16:31.857Z,10.89
2022-11-12T15:20:01.548Z,10.48
2022-11-12T15:23:23.404Z,10.21
2022-11-12T15:26:45.662Z,9.97
2022-11-12T15:30:16.320Z,9.64
2022-11-12T15:33:39.126Z,9.48
2022-11-12T15:37:03.023Z,9.70
2022-11-12T15:40:24.255Z,9.82
2022-11-12T15:43:45.464Z,9.89
2022-11-12T15:47:06.788Z,9.42
2022-11-12T15:50:32.169Z,9.25
2022-11-12T15:53:53.786Z,9.20
2022-11-12T15:57:16.903Z,9.16
2022-11-12T16:00:39.625Z,9.20
2022-11-12T16:04:01.089Z,9.24
2022-11-12T16:07:23.587Z,9.27
2022-11-12T16:10:45.714Z,9.28
2022-11-12T16:14:08.831Z,9.28
2022-11-12T16:17:30.143Z,9.26
2022-11-12T16:20:51.728Z,9.32
2022-11-12T16:24:14.298Z,9.30
2022-11-12T16:27:35.457Z,9.32
2022-11-12T16:30:57.166Z,9.16
2022-11-12T16:34:18.499Z,9.00
2022-11-12T16:37:40.447Z,9.05
2022-11-12T16:41:03.131Z,9.06
2022-11-12T16:44:24.157Z,8.91
2022-11-12T16:47:46.523Z,8.98
2022-11-12T16:51:11.859Z,8.97
2022-11-12T16:54:33.115Z,8.56
2022-11-12T16:57:55.769Z,8.62
2022-11-12T17:01:24.211Z,8.58
2022-11-12T17:04:45.881Z,8.77
2022-11-12T17:08:07.369Z,8.72
2022-11-12T17:11:30.906Z,8.63
2022-11-12T17:14:53.494Z,8.52
2022-11-12T17:18:14.732Z,8.48
2022-11-12T17:21:35.972Z,8.52
2022-11-12T17:24:57.146Z,8.48
2022-11-12T17:28:18.481Z,8.42
2022-11-12T17:31:41.395Z,8.21
2022-11-12T17:35:03.284Z,8.13
2022-11-12T17:38:24.712Z,8.11
2022-11-12T17:41:45.889Z,8.15
2022-11-12T17:45:07.917Z,8.23
2022-11-12T17:48:31.496Z,8.14
2022-11-12T17:51:53.394Z,8.05
2022-11-12T17:55:14.718Z,8.11
2022-11-12T17:58:36.011Z,7.94
2022-11-12T18:01:57.319Z,7.98
2022-11-12T18:05:23.001Z,8.12
2022-11-12T18:08:43.915Z,8.15
2022-11-12T18:12:05.165Z,8.21
2022-11-12T18:15:26.533Z,8.16
2022-11-12T18:18:48.290Z,8.21
2022-11-12T18:22:12.755Z,8.14
2022-11-12T18:25:38.635Z,8.13
2022-11-12T18:29:00.402Z,7.95
2022-11-12T18:32:21.550Z,7.89
2022-11-12T18:36:03.787Z,7.89
2022-11-12T18:39:28.004Z,7.78
2022-11-12T18:42:49.663Z,7.72
2022-11-12T18:46:11.737Z,7.71
2022-11-12T18:49:32.985Z,7.61
2022-11-12T18:52:54.290Z,7.55
2022-11-12T18:56:17.299Z,7.57
2022-11-12T18:59:38.535Z,7.56
2022-11-12T19:02:59.680Z,7.53
2022-11-12T19:06:25.335Z,7.57
2022-11-12T19:09:46.960Z,7.47
2022-11-12T19:13:12.156Z,7.33
2022-11-12T19:16:33.472Z,7.49
2022-11-12T19:19:55.155Z,7.39
2022-11-12T19:23:16.686Z,7.42
2022-11-12T19:26:37.898Z,7.47
2022-11-12T19:30:03.256Z,7.33
2022-11-12T19:33:34.875Z,7.26
2022-11-12T19:40:51.827Z,7.06
2022-11-12T19:44:13.117Z,7.13
2022-11-12T19:47:36.381Z,7.07
2022-11-12T19:51:01.309Z,6.91
2022-11-12T19:54:23.758Z,6.85
2022-11-12T19:57:44.979Z,6.80
2022-11-12T20:01:07.388Z,6.72
2022-11-12T20:04:30.359Z,6.74
2022-11-12T20:07:52.295Z,6.68
2022-11-12T20:11:13.447Z,6.78
2022-11-12T20:14:34.764Z,6.69
2022-11-12T20:17:56.465Z,6.69
2022-11-12T20:21:19.283Z,6.51
2022-11-12T20:24:40.951Z,6.54
2022-11-12T20:28:02.392Z,6.44
2022-11-12T20:31:23.545Z,6.38
2022-11-12T20:34:45.020Z,6.46
2022-11-12T20:38:08.090Z,6.42
2022-11-12T20:41:29.642Z,6.36
2022-11-12T20:44:51.186Z,6.42
2022-11-12T20:48:12.483Z,6.34
2022-11-12T20:51:35.091Z,6.31
2022-11-12T20:54:57.950Z,6.33
2022-11-12T20:58:19.900Z,6.16
2022-11-12T21:01:41.401Z,6.18
2022-11-12T21:05:02.927Z,6.09
2022-11-12T21:08:24.704Z,5.95
2022-11-12T21:11:47.567Z,5.86
2022-11-12T21:15:09.689Z,5.95
2022-11-12T21:18:31.263Z,5.95
2022-11-12T21:21:52.418Z,5.91
2022-11-12T21:25:13.840Z,5.89
2022-11-12T21:28:38.338Z,5.94
2022-11-12T21:31:59.420Z,5.91
2022-11-12T21:35:20.678Z,5.85
2022-11-12T21:38:42.598Z,5.85
2022-11-12T21:42:03.844Z,5.86
2022-11-12T21:45:26.370Z,5.79
2022-11-12T21:48:52.223Z,5.74
2022-11-12T21:52:15.933Z,5.62
2022-11-12T21:55:37.211Z,5.53
2022-11-12T21:59:00.612Z,5.52
2022-11-12T22:02:23.131Z,5.46
2022-11-12T22:05:44.217Z,5.37
2022-11-12T22:09:06.383Z,5.23
2022-11-12T22:12:27.568Z,5.17
2022-11-12T22:15:50.606Z,5.23
2022-11-12T22:19:13.186Z,5.17
2022-11-12T22:22:34.439Z,5.17
2022-11-12T22:25:57.826Z,5.23
2022-11-12T22:29:19.278Z,5.15
2022-11-12T22:32:40.146Z,5.01
2022-11-12T22:36:06.238Z,5.03
2022-11-12T22:39:27.678Z,4.98
2022-11-12T22:42:48.867Z,4.99
2022-11-12T22:46:11.517Z,4.99
2022-11-12T22:49:33.029Z,4.97
2022-11-12T22:52:55.901Z,4.98
2022-11-12T22:56:17.510Z,5.01
2022-11-12T22:59:38.782Z,4.90
2022-11-12T23:02:59.898Z,4.81
2022-11-12T23:06:21.191Z,4.68
2022-11-12T23:09:43.869Z,4.68
2022-11-12T23:13:05.085Z,4.65
2022-11-12T23:16:27.549Z,4.50
2022-11-12T23:19:48.806Z,4.57
2022-11-12T23:23:10.264Z,4.60
2022-11-12T23:26:33.457Z,4.57
2022-11-12T23:29:54.619Z,4.53
2022-11-12T23:33:15.847Z,4.58
2022-11-12T23:36:37.138Z,4.47
2022-11-12T23:39:58.221Z,4.53
2022-11-12T23:43:20.636Z,4.40
2022-11-12T23:46:42.017Z,4.41
2022-11-12T23:50:03.638Z,4.51
2022-11-12T23:53:24.926Z,4.36
2022-11-12T23:56:46.200Z,4.10
